createdAt,value
2019-05-09T00:00:33.563Z,990.77
2019-05-09T00:01:33.588Z,990.79
2019-05-09T00:02:33.731Z,990.82
2019-05-09T00:03:33.498Z,990.85
2019-05-09T00:04:33.486Z,990.83
2019-05-09T00:05:33.469Z,990.84
2019-05-09T00:06:34.013Z,990.84
2019-05-09T00:07:33.688Z,990.85
2019-05-09T00:08:33.544Z,990.84
2019-05-09T00:09:33.590Z,990.84
2019-05-09T00:10:39.291Z,990.82
2019-05-09T00:11:33.587Z,990.82
2019-05-09T00:12:33.559Z,990.81
2019-05-09T00:13:34.142Z,990.84
2019-05-09T00:14:34.221Z,990.80
2019-05-09T00:15:33.349Z,990.80
2019-05-09T00:16:33.503Z,990.83
2019-05-09T00:17:33.787Z,990.84
2019-05-09T00:18:33.617Z,990.82
2019-05-09T00:19:33.460Z,990.87
2019-05-09T00:20:33.208Z,990.88
2019-05-09T00:21:33.370Z,990.88
2019-05-09T00:22:33.296Z,990.90
2019-05-09T00:23:33.245Z,990.92
2019-05-09T00:24:33.317Z,990.88
2019-05-09T00:25:33.980Z,990.94
2019-05-09T00:26:33.917Z,990.89
2019-05-09T00:27:33.274Z,990.88
2019-05-09T00:28:35.905Z,990.92
2019-05-09T00:29:33.516Z,990.90
2019-05-09T00:30:33.240Z,990.89
2019-05-09T00:31:33.840Z,990.91
2019-05-09T00:32:34.073Z,990.92
2019-05-09T00:33:34.257Z,990.93
2019-05-09T00:34:33.811Z,990.93
2019-05-09T00:35:33.796Z,990.92
2019-05-09T00:36:33.509Z,990.90
2019-05-09T00:37:33.098Z,990.92
2019-05-09T00:38:33.400Z,990.89
2019-05-09T00:39:34.118Z,990.88
2019-05-09T00:40:34.124Z,990.87
2019-05-09T00:41:33.188Z,990.85
2019-05-09T00:42:33.433Z,990.90
2019-05-09T00:43:34.202Z,990.91
2019-05-09T00:44:33.902Z,990.89
2019-05-09T00:45:33.406Z,990.93
2019-05-09T00:46:34.121Z,990.94
2019-05-09T00:47:33.141Z,990.92
2019-05-09T00:48:33.805Z,990.93
2019-05-09T00:49:34.118Z,990.95
2019-05-09T00:50:34.133Z,990.95
2019-05-09T00:51:33.899Z,990.93
2019-05-09T00:52:33.947Z,990.96
2019-05-09T00:53:33.947Z,990.96
2019-05-09T00:54:33.600Z,990.93
2019-05-09T00:55:33.398Z,990.94
2019-05-09T00:56:33.304Z,990.93
2019-05-09T00:57:33.578Z,990.99
2019-05-09T00:58:33.541Z,990.96
2019-05-09T00:59:33.391Z,990.99
2019-05-09T01:00:33.397Z,991.03
2019-05-09T01:01:34.208Z,991.03
2019-05-09T01:02:34.050Z,991.05
2019-05-09T01:03:33.952Z,990.98
2019-05-09T01:04:33.414Z,991.02
2019-05-09T01:05:34.155Z,990.97
2019-05-09T01:06:34.040Z,991.01
2019-05-09T01:07:33.726Z,991.01
2019-05-09T01:08:33.638Z,991.03
2019-05-09T01:09:33.549Z,991.00
2019-05-09T01:10:34.228Z,991.01
2019-05-09T01:11:33.459Z,990.99
2019-05-09T01:12:34.136Z,990.95
2019-05-09T01:13:34.145Z,990.97
2019-05-09T01:14:33.973Z,990.96
2019-05-09T01:15:33.568Z,990.99
2019-05-09T01:16:33.646Z,990.98
2019-05-09T01:17:33.580Z,990.97
2019-05-09T01:18:33.311Z,990.96
2019-05-09T01:19:33.856Z,990.95
2019-05-09T01:20:33.413Z,990.94
2019-05-09T01:21:33.530Z,990.99
2019-05-09T01:22:33.366Z,990.97
2019-05-09T01:23:34.398Z,990.97
2019-05-09T01:24:33.945Z,990.97
2019-05-09T01:25:33.659Z,990.92
2019-05-09T01:26:33.574Z,990.94
2019-05-09T01:27:33.934Z,990.93
2019-05-09T01:28:34.029Z,990.97
2019-05-09T01:29:33.876Z,990.99
2019-05-09T01:30:33.750Z,990.98
2019-05-09T01:31:33.477Z,991.02
2019-05-09T01:32:34.286Z,991.00
2019-05-09T01:33:33.400Z,990.97
2019-05-09T01:34:33.413Z,990.99
2019-05-09T01:35:34.022Z,991.02
2019-05-09T01:36:33.898Z,991.02
2019-05-09T01:37:34.212Z,991.03
2019-05-09T01:38:34.035Z,991.04
2019-05-09T01:39:33.722Z,991.00
2019-05-09T01:40:33.447Z,991.00
2019-05-09T01:41:34.092Z,991.01
2019-05-09T01:42:33.804Z,991.03
2019-05-09T01:43:33.892Z,991.05
2019-05-09T01:44:33.675Z,991.01
2019-05-09T01:45:34.226Z,991.02
2019-05-09T01:46:34.063Z,991.05
2019-05-09T01:47:34.156Z,991.04
2019-05-09T01:48:34.093Z,991.11
2019-05-09T01:49:34.282Z,991.11
2019-05-09T01:50:34.008Z,991.14
2019-05-09T01:51:33.790Z,991.12
2019-05-09T01:52:33.813Z,991.08
2019-05-09T01:53:33.572Z,991.13
2019-05-09T01:54:33.518Z,991.12
2019-05-09T01:55:34.020Z,991.12
2019-05-09T01:56:33.957Z,991.11
2019-05-09T01:57:33.798Z,991.12
2019-05-09T01:58:34.441Z,991.09
2019-05-09T01:59:34.142Z,991.11
2019-05-09T02:00:33.561Z,991.11
2019-05-09T02:01:34.439Z,991.12
2019-05-09T02:02:33.905Z,991.14
2019-05-09T02:03:33.825Z,991.07
2019-05-09T02:04:33.646Z,991.12
2019-05-09T02:05:34.103Z,991.06
2019-05-09T02:06:33.587Z,991.06
2019-05-09T02:07:33.585Z,991.04
2019-05-09T02:08:34.491Z,991.09
2019-05-09T02:09:34.442Z,991.07
2019-05-09T02:10:34.701Z,991.08
2019-05-09T02:11:42.256Z,991.05
2019-05-09T02:12:33.929Z,991.02
2019-05-09T02:13:34.053Z,991.06
2019-05-09T02:14:34.379Z,991.10
2019-05-09T02:15:34.190Z,991.10
2019-05-09T02:16:33.863Z,991.05
2019-05-09T02:17:33.648Z,991.02
2019-05-09T02:18:33.677Z,991.04
2019-05-09T02:19:33.661Z,991.05
2019-05-09T02:20:33.670Z,991.06
2019-05-09T02:21:34.527Z,991.02
2019-05-09T02:22:34.594Z,991.01
2019-05-09T02:23:34.008Z,991.03
2019-05-09T02:24:33.914Z,991.02
2019-05-09T02:25:33.693Z,990.98
2019-05-09T02:26:33.696Z,991.03
2019-05-09T02:27:33.714Z,991.01
2019-05-09T02:28:34.248Z,991.05
2019-05-09T02:29:33.858Z,991.00
2019-05-09T02:30:36.014Z,991.02
2019-05-09T02:31:35.350Z,991.02
2019-05-09T02:32:34.679Z,991.04
2019-05-09T02:33:34.745Z,991.04
2019-05-09T02:34:35.685Z,991.03
2019-05-09T02:35:41.520Z,991.01
2019-05-09T02:36:33.751Z,991.01
2019-05-09T02:37:33.754Z,990.97
2019-05-09T02:38:33.780Z,991.02
2019-05-09T02:39:33.783Z,991.03
2019-05-09T02:40:33.777Z,990.96
2019-05-09T02:41:33.779Z,991.03
2019-05-09T02:42:33.789Z,990.94
2019-05-09T02:43:33.794Z,990.98
2019-05-09T02:44:33.788Z,991.00
2019-05-09T02:45:33.800Z,990.95
2019-05-09T02:46:33.804Z,990.96
2019-05-09T02:47:33.816Z,990.96
2019-05-09T02:48:33.825Z,990.95
2019-05-09T02:49:33.845Z,990.96
2019-05-09T02:50:33.823Z,990.97
2019-05-09T02:51:33.841Z,990.99
2019-05-09T02:52:33.835Z,990.94
2019-05-09T02:53:33.833Z,990.97
2019-05-09T02:54:33.846Z,990.94
2019-05-09T02:55:33.940Z,990.93
2019-05-09T02:56:33.860Z,990.93
2019-05-09T02:57:33.863Z,990.97
2019-05-09T02:58:33.859Z,990.94
2019-05-09T02:59:33.945Z,990.96
2019-05-09T03:00:33.874Z,990.95
2019-05-09T03:01:33.879Z,990.96
2019-05-09T03:02:33.880Z,990.98
2019-05-09T03:03:33.884Z,990.94
2019-05-09T03:04:33.897Z,990.95
2019-05-09T03:05:33.914Z,990.95
2019-05-09T03:06:33.904Z,990.94
2019-05-09T03:07:33.910Z,990.95
2019-05-09T03:08:33.910Z,990.91
2019-05-09T03:09:33.918Z,990.96
2019-05-09T03:10:33.926Z,990.93
2019-05-09T03:11:33.997Z,990.94
2019-05-09T03:12:35.702Z,990.91
2019-05-09T03:13:33.941Z,990.92
2019-05-09T03:14:33.943Z,990.92
2019-05-09T03:15:33.941Z,990.90
2019-05-09T03:16:33.961Z,990.94
2019-05-09T03:17:33.956Z,990.93
2019-05-09T03:18:33.968Z,990.96
2019-05-09T03:19:33.969Z,990.92
2019-05-09T03:20:33.965Z,990.94
2019-05-09T03:21:33.983Z,990.93
2019-05-09T03:22:33.988Z,990.96
2019-05-09T03:23:33.985Z,990.93
2019-05-09T03:24:33.992Z,990.95
2019-05-09T03:25:33.997Z,990.90
2019-05-09T03:26:34.004Z,990.88
2019-05-09T03:27:34.008Z,990.96
2019-05-09T03:28:34.014Z,990.91
2019-05-09T03:29:34.017Z,990.96
2019-05-09T03:30:34.015Z,990.93
2019-05-09T03:31:34.025Z,990.94
2019-05-09T03:32:34.034Z,990.95
2019-05-09T03:33:35.790Z,990.93
2019-05-09T03:34:34.036Z,990.94
2019-05-09T03:35:34.051Z,990.97
2019-05-09T03:36:34.040Z,990.92
2019-05-09T03:37:34.100Z,990.90
2019-05-09T03:38:34.172Z,990.92
2019-05-09T03:39:34.220Z,990.93
2019-05-09T03:40:34.067Z,990.91
2019-05-09T03:41:34.100Z,990.93
2019-05-09T03:42:43.001Z,990.91
2019-05-09T03:43:34.255Z,990.91
2019-05-09T03:44:34.286Z,990.94
2019-05-09T03:45:34.092Z,990.93
2019-05-09T03:46:34.099Z,990.93
2019-05-09T03:47:34.108Z,990.94
2019-05-09T03:48:34.111Z,990.91
2019-05-09T03:49:34.122Z,990.88
2019-05-09T03:50:34.118Z,990.95
2019-05-09T03:51:34.121Z,990.92
2019-05-09T03:52:34.122Z,990.90
2019-05-09T03:53:34.131Z,990.91
2019-05-09T03:54:34.138Z,990.95
2019-05-09T03:55:34.141Z,990.97
2019-05-09T03:56:34.147Z,990.91
2019-05-09T03:57:34.147Z,990.95
2019-05-09T03:58:34.157Z,990.91
2019-05-09T03:59:34.163Z,990.91
2019-05-09T04:00:34.204Z,990.95
2019-05-09T04:01:34.179Z,990.90
2019-05-09T04:02:34.180Z,990.96
2019-05-09T04:03:34.184Z,990.90
2019-05-09T04:04:34.764Z,990.92
2019-05-09T04:05:34.185Z,990.92
2019-05-09T04:06:34.212Z,990.93
2019-05-09T04:07:34.210Z,990.96
2019-05-09T04:08:34.211Z,990.99
2019-05-09T04:09:34.208Z,990.98
2019-05-09T04:10:34.213Z,991.03
2019-05-09T04:11:34.221Z,991.01
2019-05-09T04:12:34.227Z,991.02
2019-05-09T04:13:34.227Z,990.99
2019-05-09T04:14:34.240Z,991.02
2019-05-09T04:15:34.256Z,991.00
2019-05-09T04:16:34.256Z,990.99
2019-05-09T04:17:34.240Z,991.00
2019-05-09T04:18:34.250Z,991.00
2019-05-09T04:19:34.261Z,991.00
2019-05-09T04:20:34.256Z,990.99
2019-05-09T04:21:34.269Z,991.00
2019-05-09T04:22:34.277Z,990.98
2019-05-09T04:23:34.276Z,991.02
2019-05-09T04:24:34.288Z,991.03
2019-05-09T04:25:34.293Z,991.04
2019-05-09T04:26:34.285Z,991.05
2019-05-09T04:27:34.310Z,991.07
2019-05-09T04:28:34.301Z,991.13
2019-05-09T04:29:34.323Z,991.13
2019-05-09T04:30:34.310Z,991.12
2019-05-09T04:31:34.320Z,991.18
2019-05-09T04:32:34.333Z,991.23
2019-05-09T04:33:34.328Z,991.23
2019-05-09T04:34:34.334Z,991.17
2019-05-09T04:35:34.342Z,991.23
2019-05-09T04:36:34.345Z,991.24
2019-05-09T04:37:34.352Z,991.23
2019-05-09T04:38:34.357Z,991.20
2019-05-09T04:39:34.364Z,991.19
2019-05-09T04:40:37.669Z,991.18
2019-05-09T04:41:34.370Z,991.20
2019-05-09T04:42:35.095Z,991.22
2019-05-09T04:43:36.811Z,991.16
2019-05-09T04:44:34.390Z,991.19
2019-05-09T04:45:38.790Z,991.18
2019-05-09T04:46:34.397Z,991.23
2019-05-09T04:47:41.376Z,991.22
2019-05-09T04:48:34.443Z,991.22
2019-05-09T04:49:39.649Z,991.20
2019-05-09T04:50:34.410Z,991.23
2019-05-09T04:51:34.426Z,991.26
2019-05-09T04:52:34.422Z,991.23
2019-05-09T04:53:34.435Z,991.25
2019-05-09T04:54:34.443Z,991.28
2019-05-09T04:55:34.447Z,991.26
2019-05-09T04:56:34.447Z,991.29
2019-05-09T04:57:34.464Z,991.29
2019-05-09T04:58:34.478Z,991.35
2019-05-09T04:59:34.468Z,991.35
2019-05-09T05:00:34.468Z,991.32
2019-05-09T05:01:34.473Z,991.35
2019-05-09T05:02:34.473Z,991.33
2019-05-09T05:03:34.481Z,991.35
2019-05-09T05:04:34.493Z,991.38
2019-05-09T05:05:34.499Z,991.42
2019-05-09T05:06:34.501Z,991.44
2019-05-09T05:07:34.505Z,991.47
2019-05-09T05:08:34.513Z,991.46
2019-05-09T05:09:34.519Z,991.49
2019-05-09T05:10:34.522Z,991.48
2019-05-09T05:11:34.521Z,991.47
2019-05-09T05:12:34.536Z,991.49
2019-05-09T05:13:34.554Z,991.49
2019-05-09T05:14:34.549Z,991.49
2019-05-09T05:15:34.556Z,991.50
2019-05-09T05:16:34.563Z,991.55
2019-05-09T05:17:34.557Z,991.56
2019-05-09T05:18:34.574Z,991.57
2019-05-09T05:19:37.665Z,991.57
2019-05-09T05:20:34.582Z,991.58
2019-05-09T05:21:34.582Z,991.56
2019-05-09T05:22:34.589Z,991.56
2019-05-09T05:23:34.597Z,991.54
2019-05-09T05:24:34.603Z,991.53
2019-05-09T05:25:34.617Z,991.56
2019-05-09T05:26:34.613Z,991.54
2019-05-09T05:27:34.624Z,991.55
2019-05-09T05:28:34.624Z,991.54
2019-05-09T05:29:34.648Z,991.53
2019-05-09T05:30:34.642Z,991.52
2019-05-09T05:31:34.641Z,991.51
2019-05-09T05:32:34.645Z,991.51
2019-05-09T05:33:34.655Z,991.46
2019-05-09T05:34:34.666Z,991.48
2019-05-09T05:35:34.667Z,991.47
2019-05-09T05:36:34.687Z,991.49
2019-05-09T05:37:34.676Z,991.50
2019-05-09T05:38:34.687Z,991.50
2019-05-09T05:39:34.696Z,991.45
2019-05-09T05:40:34.693Z,991.49
2019-05-09T05:41:34.699Z,991.49
2019-05-09T05:42:34.724Z,991.52
2019-05-09T05:43:41.512Z,991.49
2019-05-09T05:44:34.713Z,991.51
2019-05-09T05:45:34.732Z,991.48
2019-05-09T05:46:34.743Z,991.52
2019-05-09T05:47:34.737Z,991.52
2019-05-09T05:48:34.742Z,991.55
2019-05-09T05:49:34.769Z,991.53
2019-05-09T05:50:34.753Z,991.54
2019-05-09T05:51:34.758Z,991.59
2019-05-09T05:52:34.767Z,991.60
2019-05-09T05:53:34.778Z,991.60
2019-05-09T05:54:34.780Z,991.57
2019-05-09T05:55:34.782Z,991.58
2019-05-09T05:56:34.800Z,991.63
2019-05-09T05:57:34.806Z,991.67
2019-05-09T05:58:34.798Z,991.78
2019-05-09T05:59:39.145Z,991.64
2019-05-09T06:00:34.819Z,991.77
2019-05-09T06:01:34.825Z,991.81
2019-05-09T06:02:34.827Z,991.86
2019-05-09T06:03:34.835Z,991.90
2019-05-09T06:04:34.850Z,991.90
2019-05-09T06:05:34.851Z,991.94
2019-05-09T06:06:37.340Z,991.93
2019-05-09T06:07:34.866Z,991.92
2019-05-09T06:08:34.876Z,991.93
2019-05-09T06:09:34.885Z,991.93
2019-05-09T06:10:34.896Z,992.00
2019-05-09T06:11:34.895Z,991.96
2019-05-09T06:12:34.923Z,991.95
2019-05-09T06:13:34.918Z,991.99
2019-05-09T06:14:34.935Z,991.98
2019-05-09T06:15:34.943Z,992.01
2019-05-09T06:16:37.552Z,992.04
2019-05-09T06:17:34.959Z,992.04
2019-05-09T06:18:34.973Z,992.01
2019-05-09T06:19:37.630Z,992.04
2019-05-09T06:20:34.987Z,992.08
2019-05-09T06:21:34.994Z,992.02
2019-05-09T06:22:35.022Z,992.05
2019-05-09T06:23:37.305Z,992.09
2019-05-09T06:24:35.024Z,992.14
2019-05-09T06:25:35.043Z,992.16
2019-05-09T06:26:37.237Z,992.15
2019-05-09T06:27:35.062Z,992.18
2019-05-09T06:28:35.068Z,992.22
2019-05-09T06:29:35.080Z,992.21
2019-05-09T06:30:40.902Z,992.29
2019-05-09T06:31:35.105Z,992.34
2019-05-09T06:32:35.135Z,992.29
2019-05-09T06:33:35.305Z,992.25
2019-05-09T06:34:38.487Z,992.29
2019-05-09T06:35:37.761Z,992.34
2019-05-09T06:36:38.617Z,992.38
2019-05-09T06:37:35.180Z,992.42
2019-05-09T06:38:37.591Z,992.44
2019-05-09T06:39:37.175Z,992.36
2019-05-09T06:40:35.213Z,992.45
2019-05-09T06:41:37.799Z,992.44
2019-05-09T06:42:37.848Z,992.44
2019-05-09T06:43:35.251Z,992.46
2019-05-09T06:44:37.329Z,992.47
2019-05-09T06:45:39.140Z,992.50
2019-05-09T06:46:37.699Z,992.51
2019-05-09T06:47:35.291Z,992.58
2019-05-09T06:48:37.621Z,992.53
2019-05-09T06:49:37.540Z,992.51
2019-05-09T06:50:35.328Z,992.54
2019-05-09T06:51:35.394Z,992.54
2019-05-09T06:52:37.443Z,992.53
2019-05-09T06:53:35.353Z,992.52
2019-05-09T06:54:35.369Z,992.49
2019-05-09T06:55:35.385Z,992.47
2019-05-09T06:56:35.408Z,992.44
2019-05-09T06:57:38.984Z,992.54
2019-05-09T06:58:35.429Z,992.46
2019-05-09T06:59:35.447Z,992.46
2019-05-09T07:00:37.750Z,992.45
2019-05-09T07:01:37.497Z,992.42
2019-05-09T07:02:35.480Z,992.43
2019-05-09T07:03:37.427Z,992.48
2019-05-09T07:04:37.852Z,992.48
2019-05-09T07:05:35.545Z,992.51
2019-05-09T07:06:38.076Z,992.52
2019-05-09T07:07:37.404Z,992.41
2019-05-09T07:08:37.927Z,992.52
2019-05-09T07:09:35.579Z,992.51
2019-05-09T07:10:37.640Z,992.50
2019-05-09T07:11:37.966Z,992.56
2019-05-09T07:12:37.888Z,992.46
2019-05-09T07:13:35.644Z,992.43
2019-05-09T07:14:39.122Z,992.41
2019-05-09T07:15:37.547Z,992.39
2019-05-09T07:16:37.635Z,992.41
2019-05-09T07:17:38.540Z,992.41
2019-05-09T07:18:35.693Z,992.27
2019-05-09T07:19:38.023Z,992.31
2019-05-09T07:20:37.825Z,992.39
2019-05-09T07:21:37.571Z,992.50
2019-05-09T07:22:35.769Z,992.69
2019-05-09T07:23:37.309Z,992.76
2019-05-09T07:24:37.729Z,992.75
2019-05-09T07:25:37.739Z,992.98
2019-05-09T07:26:37.371Z,993.10
2019-05-09T07:27:35.814Z,993.04
2019-05-09T07:28:37.642Z,992.87
2019-05-09T07:29:37.599Z,992.98
2019-05-09T07:30:37.619Z,993.04
2019-05-09T07:31:37.922Z,993.25
2019-05-09T07:32:38.117Z,993.21
2019-05-09T07:33:38.225Z,993.38
2019-05-09T07:34:38.153Z,993.41
2019-05-09T07:35:38.008Z,993.06
2019-05-09T07:36:37.760Z,993.26
2019-05-09T07:37:37.917Z,993.45
2019-05-09T07:38:38.317Z,993.31
2019-05-09T07:39:37.929Z,993.41
2019-05-09T07:40:38.312Z,993.44
2019-05-09T07:41:38.224Z,993.49
2019-05-09T07:42:36.017Z,993.55
2019-05-09T07:43:38.318Z,993.51
2019-05-09T07:44:46.293Z,993.73
2019-05-09T07:45:38.189Z,993.25
2019-05-09T07:46:38.337Z,993.18
2019-05-09T07:47:36.096Z,993.22
2019-05-09T07:48:38.064Z,993.26
2019-05-09T07:49:37.707Z,993.08
2019-05-09T07:50:38.666Z,993.06
2019-05-09T07:51:37.319Z,993.24
2019-05-09T07:52:38.563Z,993.26
2019-05-09T07:53:37.990Z,993.33
2019-05-09T07:54:37.673Z,993.44
2019-05-09T07:55:37.912Z,993.36
2019-05-09T07:56:37.873Z,993.62
2019-05-09T07:57:44.863Z,993.43
2019-05-09T07:58:37.765Z,993.26
2019-05-09T07:59:36.274Z,993.19
2019-05-09T08:00:38.461Z,993.28
2019-05-09T08:01:38.452Z,993.25
2019-05-09T08:02:38.592Z,993.49
2019-05-09T08:03:38.456Z,993.60
2019-05-09T08:04:38.499Z,993.74
2019-05-09T08:05:38.348Z,994.95
2019-05-09T08:06:38.026Z,994.69
2019-05-09T08:07:38.070Z,995.69
2019-05-09T08:08:38.463Z,993.76
2019-05-09T08:09:38.814Z,996.42
2019-05-09T08:10:38.417Z,996.56
2019-05-09T08:11:37.694Z,996.82
2019-05-09T08:12:38.701Z,997.10
2019-05-09T08:13:38.602Z,997.35
2019-05-09T08:14:37.788Z,997.81
2019-05-09T08:15:38.368Z,998.36
2019-05-09T08:16:37.912Z,996.52
2019-05-09T08:17:38.223Z,996.98
2019-05-09T08:18:37.576Z,1001.43
2019-05-09T08:19:38.001Z,1001.69
2019-05-09T08:20:40.493Z,1001.47
2019-05-09T08:21:38.350Z,1002.38
2019-05-09T08:22:40.828Z,1005.04
2019-05-09T08:23:37.997Z,1004.72
2019-05-09T08:24:38.053Z,1000.84
2019-05-09T08:25:38.234Z,995.06
2019-05-09T08:26:36.579Z,999.09
2019-05-09T08:27:37.944Z,995.03
2019-05-09T08:28:39.013Z,1003.44
2019-05-09T08:29:38.747Z,993.96
2019-05-09T08:30:39.934Z,998.57
2019-05-09T08:31:40.107Z,993.82
2019-05-09T08:32:37.713Z,993.31
2019-05-09T08:33:38.077Z,1004.91
2019-05-09T08:34:37.773Z,993.02
2019-05-09T08:35:38.287Z,992.59
2019-05-09T08:36:38.449Z,993.05
2019-05-09T08:37:38.964Z,996.00
2019-05-09T08:38:39.040Z,1009.31
2019-05-09T08:39:38.285Z,996.13
2019-05-09T08:40:38.133Z,992.90
2019-05-09T08:41:38.468Z,992.84
2019-05-09T08:42:37.782Z,1003.41
2019-05-09T08:43:37.693Z,995.71
2019-05-09T08:45:38.316Z,994.27
2019-05-09T08:46:37.713Z,997.59
2019-05-09T08:47:38.102Z,1004.16
2019-05-09T08:48:37.803Z,994.30
2019-05-09T08:49:37.412Z,992.82
2019-05-09T08:50:38.972Z,994.43
2019-05-09T08:51:50.835Z,994.46
2019-05-09T08:52:37.650Z,998.95
2019-05-09T08:53:38.100Z,998.43
2019-05-09T08:54:38.037Z,994.21
2019-05-09T08:55:38.313Z,999.78
2019-05-09T08:56:38.749Z,1008.89
2019-05-09T08:57:37.604Z,1017.84
2019-05-09T08:58:38.180Z,1015.79
2019-05-09T08:59:38.289Z,1014.00
2019-05-09T09:02:04.377Z,1003.64
2019-05-09T09:02:37.670Z,1014.55
2019-05-09T09:03:37.725Z,1014.17
2019-05-09T09:04:38.404Z,1015.13
2019-05-09T09:05:38.140Z,1009.06
2019-05-09T09:06:37.952Z,1005.71
2019-05-09T09:07:37.940Z,1001.59
2019-05-09T09:08:38.030Z,1015.78
2019-05-09T09:09:37.899Z,1016.36
2019-05-09T09:10:38.584Z,1014.01
2019-05-09T09:11:38.512Z,1008.50
2019-05-09T09:12:38.446Z,1010.04
2019-05-09T09:13:37.855Z,1004.50
2019-05-09T09:14:38.446Z,1006.14
2019-05-09T09:16:02.379Z,1008.50
2019-05-09T09:16:37.901Z,998.45
2019-05-09T09:17:38.578Z,1005.92
2019-05-09T09:18:38.816Z,1006.51
2019-05-09T09:19:38.618Z,1003.46
2019-05-09T09:20:38.024Z,1007.73
2019-05-09T09:21:38.799Z,1008.28
2019-05-09T09:22:37.671Z,992.99
2019-05-09T09:23:44.106Z,1002.04
2019-05-09T09:24:37.633Z,1007.00
2019-05-09T09:25:39.152Z,995.70
2019-05-09T09:26:38.196Z,993.05
2019-05-09T09:27:38.021Z,993.17
2019-05-09T09:28:38.096Z,994.25
2019-05-09T09:29:38.098Z,993.42
2019-05-09T09:30:38.501Z,992.71
2019-05-09T09:31:37.896Z,992.92
2019-05-09T09:32:38.752Z,992.48
2019-05-09T09:33:37.823Z,992.12
2019-05-09T09:34:37.898Z,992.02
2019-05-09T09:35:38.300Z,992.04
2019-05-09T09:36:39.110Z,992.11
2019-05-09T09:37:47.863Z,992.16
2019-05-09T09:38:37.711Z,992.33
2019-05-09T09:39:44.325Z,993.46
2019-05-09T09:40:38.500Z,993.06
2019-05-09T09:41:38.702Z,992.58
2019-05-09T09:42:39.727Z,992.46
2019-05-09T09:43:38.311Z,992.18
2019-05-09T09:44:39.386Z,992.11
2019-05-09T09:45:38.029Z,992.07
2019-05-09T09:46:37.702Z,992.37
2019-05-09T09:47:39.579Z,992.51
2019-05-09T09:48:38.826Z,992.48
2019-05-09T09:49:38.361Z,992.27
2019-05-09T09:50:38.387Z,993.06
2019-05-09T09:51:38.385Z,992.44
2019-05-09T09:52:38.465Z,993.26
2019-05-09T09:53:38.569Z,992.52
2019-05-09T09:54:38.625Z,992.47
2019-05-09T09:55:38.646Z,997.30
2019-05-09T09:56:38.579Z,993.83
2019-05-09T09:57:37.902Z,996.60
2019-05-09T09:58:38.080Z,996.51
2019-05-09T09:59:40.820Z,996.36
2019-05-09T10:00:38.254Z,996.50
2019-05-09T10:01:38.514Z,996.61
2019-05-09T10:02:38.014Z,996.77
2019-05-09T10:03:37.907Z,993.49
2019-05-09T10:04:37.919Z,992.96
2019-05-09T10:05:38.142Z,996.98
2019-05-09T10:06:38.829Z,993.23
2019-05-09T10:07:38.520Z,992.65
2019-05-09T10:08:39.587Z,992.92
2019-05-09T10:09:38.009Z,993.20
2019-05-09T10:10:38.028Z,993.06
2019-05-09T10:11:38.046Z,993.22
2019-05-09T10:12:44.306Z,992.66
2019-05-09T10:13:38.059Z,992.44
2019-05-09T10:14:38.068Z,993.26
2019-05-09T10:15:38.474Z,992.29
2019-05-09T10:16:39.001Z,992.09
2019-05-09T10:17:38.690Z,992.10
2019-05-09T10:18:38.310Z,992.14
2019-05-09T10:19:38.463Z,992.23
2019-05-09T10:20:38.599Z,992.26
2019-05-09T10:21:38.319Z,992.21
2019-05-09T10:22:46.002Z,992.22
2019-05-09T10:23:38.193Z,992.13
2019-05-09T10:24:38.205Z,992.16
2019-05-09T10:25:38.438Z,992.13
2019-05-09T10:26:39.026Z,992.05
2019-05-09T10:27:38.785Z,991.98
2019-05-09T10:28:38.268Z,992.01
2019-05-09T10:29:38.763Z,992.15
2019-05-09T10:30:38.518Z,992.02
2019-05-09T10:31:39.243Z,992.11
2019-05-09T10:32:38.505Z,992.29
2019-05-09T10:33:38.317Z,992.14
2019-05-09T10:34:38.385Z,992.12
2019-05-09T10:35:39.219Z,992.34
2019-05-09T10:36:38.568Z,992.40
2019-05-09T10:37:39.320Z,992.37
2019-05-09T10:38:38.809Z,992.18
2019-05-09T10:39:38.385Z,992.15
2019-05-09T10:40:40.061Z,992.31
2019-05-09T10:41:38.391Z,992.45
2019-05-09T10:42:38.416Z,992.81
2019-05-09T10:43:39.128Z,992.62
2019-05-09T10:44:38.445Z,992.26
2019-05-09T10:45:40.844Z,992.45
2019-05-09T10:46:51.466Z,992.39
2019-05-09T10:47:38.463Z,992.21
2019-05-09T10:48:38.672Z,992.15
2019-05-09T10:49:38.499Z,992.22
2019-05-09T10:50:44.749Z,992.38
2019-05-09T10:51:38.522Z,992.49
2019-05-09T10:52:38.550Z,992.36
2019-05-09T10:53:38.535Z,992.20
2019-05-09T10:54:38.548Z,993.14
2019-05-09T10:55:38.774Z,992.86
2019-05-09T10:56:38.683Z,992.36
2019-05-09T10:58:38.588Z,992.00
2019-05-09T10:59:38.622Z,992.30
2019-05-09T11:00:39.614Z,992.27
2019-05-09T11:01:38.730Z,992.31
2019-05-09T11:02:38.631Z,992.21
2019-05-09T11:03:38.644Z,992.42
2019-05-09T11:04:42.075Z,992.97
2019-05-09T11:05:38.683Z,993.10
2019-05-09T11:06:38.700Z,992.74
2019-05-09T11:07:38.694Z,992.48
2019-05-09T11:08:38.700Z,993.09
2019-05-09T11:09:39.092Z,993.36
2019-05-09T11:11:38.934Z,992.60
2019-05-09T11:12:38.765Z,992.67
2019-05-09T11:13:39.081Z,993.38
2019-05-09T11:14:38.798Z,993.44
2019-05-09T11:15:38.854Z,992.80
2019-05-09T11:16:45.848Z,992.59
2019-05-09T11:17:39.031Z,992.25
2019-05-09T11:18:38.851Z,992.03
2019-05-09T11:19:38.860Z,991.99
2019-05-09T11:20:38.885Z,992.02
2019-05-09T11:21:39.374Z,992.01
2019-05-09T11:22:38.923Z,992.00
2019-05-09T11:23:39.383Z,992.02
2019-05-09T11:24:46.112Z,992.08
2019-05-09T11:25:38.995Z,992.25
2019-05-09T11:26:39.826Z,992.45
2019-05-09T11:27:39.016Z,992.46
2019-05-09T11:28:38.988Z,992.52
2019-05-09T11:29:39.008Z,992.51
2019-05-09T11:30:39.020Z,992.56
2019-05-09T11:32:39.048Z,993.09
2019-05-09T11:33:39.052Z,993.20
2019-05-09T11:34:39.072Z,992.88
2019-05-09T11:35:39.184Z,992.57
2019-05-09T11:36:39.220Z,992.35
2019-05-09T11:37:39.161Z,992.20
2019-05-09T11:38:43.625Z,992.20
2019-05-09T11:39:42.184Z,992.19
2019-05-09T11:40:39.146Z,992.11
2019-05-09T11:41:39.209Z,991.97
2019-05-09T11:42:39.182Z,991.99
2019-05-09T11:43:39.193Z,992.01
2019-05-09T11:44:39.203Z,992.12
2019-05-09T11:45:39.220Z,992.22
2019-05-09T11:46:39.239Z,992.32
2019-05-09T11:47:45.936Z,992.44
2019-05-09T11:48:39.264Z,992.45
2019-05-09T11:49:39.351Z,992.36
2019-05-09T11:50:39.294Z,992.38
2019-05-09T11:51:39.320Z,992.33
2019-05-09T11:52:39.397Z,992.26
2019-05-09T11:53:40.186Z,992.35
2019-05-09T11:54:39.331Z,992.50
2019-05-09T11:55:43.051Z,992.52
2019-05-09T11:56:39.353Z,992.38
2019-05-09T11:57:39.378Z,992.47
2019-05-09T11:58:39.390Z,992.30
2019-05-09T11:59:39.401Z,992.16
2019-05-09T12:00:39.414Z,992.07
2019-05-09T12:01:39.943Z,992.10
2019-05-09T12:03:39.446Z,991.88
2019-05-09T12:04:39.467Z,991.87
2019-05-09T12:05:39.469Z,991.87
2019-05-09T12:06:39.483Z,991.90
2019-05-09T12:07:39.490Z,992.00
2019-05-09T12:08:39.503Z,992.01
2019-05-09T12:09:39.528Z,991.91
2019-05-09T12:10:39.548Z,992.00
2019-05-09T12:11:44.254Z,992.05
2019-05-09T12:12:39.559Z,992.08
2019-05-09T12:13:39.565Z,992.11
2019-05-09T12:14:39.574Z,992.14
2019-05-09T12:15:39.588Z,992.31
2019-05-09T12:16:39.596Z,992.46
2019-05-09T12:17:51.071Z,992.41
2019-05-09T12:18:39.629Z,992.56
2019-05-09T12:19:39.621Z,992.69
2019-05-09T12:20:39.642Z,992.57
2019-05-09T12:21:47.434Z,992.55
2019-05-09T12:22:39.665Z,992.60
2019-05-09T12:23:39.681Z,992.58
2019-05-09T12:24:39.793Z,992.63
2019-05-09T12:25:39.693Z,992.61
2019-05-09T12:26:39.713Z,992.62
2019-05-09T12:27:39.725Z,992.58
2019-05-09T12:28:39.729Z,992.54
2019-05-09T12:29:39.769Z,992.64
2019-05-09T12:30:39.761Z,992.57
2019-05-09T12:31:39.775Z,992.75
2019-05-09T12:32:39.786Z,992.73
2019-05-09T12:33:39.792Z,992.69